createdAt,value
2017-11-16T00:02:21.294Z,5.90
2017-11-16T00:04:47.551Z,5.90
2017-11-16T00:07:14.564Z,5.90
2017-11-16T00:09:40.916Z,5.90
2017-11-16T00:12:07.183Z,5.90
2017-11-16T00:14:33.483Z,5.90
2017-11-16T00:16:59.760Z,5.90
2017-11-16T00:19:26.019Z,5.90
2017-11-16T00:21:53.048Z,5.80
2017-11-16T00:24:19.331Z,5.80
2017-11-16T00:26:45.583Z,5.90
2017-11-16T00:29:11.892Z,5.90
2017-11-16T00:31:38.155Z,5.90
2017-11-16T00:34:04.435Z,5.80
2017-11-16T00:36:30.711Z,5.80
2017-11-16T00:38:56.980Z,5.80
2017-11-16T00:41:23.260Z,5.80
2017-11-16T00:43:49.539Z,5.80
2017-11-16T00:46:15.812Z,5.80
2017-11-16T00:48:42.108Z,5.80
2017-11-16T00:51:08.391Z,5.80
2017-11-16T00:53:34.663Z,5.80
2017-11-16T00:56:00.934Z,5.80
2017-11-16T00:58:27.227Z,5.80
2017-11-16T01:00:53.496Z,5.80
2017-11-16T01:03:19.796Z,5.80
2017-11-16T01:05:46.068Z,5.80
2017-11-16T01:08:12.336Z,5.80
2017-11-16T01:10:39.379Z,5.80
2017-11-16T01:13:05.644Z,5.80
2017-11-16T01:15:32.696Z,5.70
2017-11-16T01:17:58.956Z,5.70
2017-11-16T01:20:25.954Z,5.80
2017-11-16T01:22:52.247Z,5.80
2017-11-16T01:25:18.512Z,5.80
2017-11-16T01:27:44.807Z,5.80
2017-11-16T01:30:11.955Z,5.80
2017-11-16T01:32:38.220Z,5.80
2017-11-16T01:35:04.520Z,5.80
2017-11-16T01:37:30.821Z,5.80
2017-11-16T01:39:57.147Z,5.80
2017-11-16T01:42:23.427Z,5.80
2017-11-16T01:44:49.747Z,5.80
2017-11-16T01:47:17.075Z,5.70
2017-11-16T01:49:43.327Z,5.70
2017-11-16T01:52:09.636Z,5.70
2017-11-16T01:54:35.924Z,5.70
2017-11-16T01:57:02.211Z,5.70
2017-11-16T01:59:28.605Z,5.70
2017-11-16T02:01:54.911Z,5.70
2017-11-16T02:04:21.239Z,5.70
2017-11-16T02:06:47.564Z,5.70
2017-11-16T02:09:13.875Z,5.70
2017-11-16T02:11:40.172Z,5.70
2017-11-16T02:14:06.495Z,5.70
2017-11-16T02:16:32.759Z,5.70
2017-11-16T02:18:59.047Z,5.70
2017-11-16T02:21:26.128Z,5.70
2017-11-16T02:23:53.180Z,5.70
2017-11-16T02:26:20.252Z,5.60
2017-11-16T02:28:46.575Z,5.60
2017-11-16T02:31:13.599Z,5.60
2017-11-16T02:33:39.924Z,5.60
2017-11-16T02:36:06.266Z,5.60
2017-11-16T02:38:32.564Z,5.60
2017-11-16T02:40:59.643Z,5.70
2017-11-16T02:43:25.967Z,5.70
2017-11-16T02:45:52.273Z,5.70
2017-11-16T02:48:18.595Z,5.70
2017-11-16T02:50:44.920Z,5.70
2017-11-16T02:53:11.243Z,5.70
2017-11-16T02:55:37.531Z,5.60
2017-11-16T02:58:03.823Z,5.70
2017-11-16T03:00:30.182Z,5.70
2017-11-16T03:02:56.458Z,5.60
2017-11-16T03:05:22.798Z,5.50
2017-11-16T03:07:49.068Z,5.50
2017-11-16T03:10:15.387Z,5.50
2017-11-16T03:12:41.739Z,5.50
2017-11-16T03:15:08.036Z,5.50
2017-11-16T03:17:34.334Z,5.50
2017-11-16T03:20:01.396Z,5.40
2017-11-16T03:22:28.449Z,5.30
2017-11-16T03:24:54.760Z,5.30
2017-11-16T03:27:21.111Z,5.40
2017-11-16T03:29:47.407Z,5.40
2017-11-16T03:32:14.464Z,5.40
2017-11-16T03:34:40.752Z,5.40
2017-11-16T03:37:07.056Z,5.30
2017-11-16T03:39:33.359Z,5.30
2017-11-16T03:42:00.432Z,5.30
2017-11-16T03:44:26.727Z,5.30
2017-11-16T03:46:52.988Z,5.40
2017-11-16T03:49:19.316Z,5.20
2017-11-16T03:51:45.620Z,5.30
2017-11-16T03:54:11.912Z,5.30
2017-11-16T03:56:38.247Z,5.30
2017-11-16T03:59:04.504Z,5.30
2017-11-16T04:01:30.784Z,5.30
2017-11-16T04:03:57.075Z,5.30
2017-11-16T04:06:23.355Z,5.30
2017-11-16T04:08:49.600Z,5.20
2017-11-16T04:11:15.918Z,5.20
2017-11-16T04:13:42.212Z,5.20
2017-11-16T04:16:08.503Z,5.20
2017-11-16T04:18:35.543Z,5.20
2017-11-16T04:21:01.849Z,5.20
2017-11-16T04:23:28.874Z,5.20
2017-11-16T04:25:55.192Z,5.20
2017-11-16T04:28:21.491Z,5.20
2017-11-16T04:30:47.816Z,5.10
2017-11-16T04:33:14.139Z,5.20
2017-11-16T04:35:41.176Z,5.20
2017-11-16T04:38:07.469Z,5.10
2017-11-16T04:40:33.748Z,5.10
2017-11-16T04:43:00.035Z,5.20
2017-11-16T04:45:26.299Z,5.20
2017-11-16T04:47:53.339Z,5.10
2017-11-16T04:50:19.628Z,5.10
2017-11-16T04:52:45.899Z,5.20
2017-11-16T04:55:12.195Z,5.20
2017-11-16T04:57:38.480Z,5.10
2017-11-16T05:00:04.764Z,5.20
2017-11-16T05:02:31.084Z,5.10
2017-11-16T05:04:57.375Z,5.10
2017-11-16T05:07:23.663Z,5.10
2017-11-16T05:09:49.948Z,5.00
2017-11-16T05:12:16.236Z,5.10
2017-11-16T05:14:43.239Z,5.10
2017-11-16T05:17:09.527Z,5.10
2017-11-16T05:19:35.860Z,5.00
2017-11-16T05:22:02.167Z,5.00
2017-11-16T05:24:28.491Z,5.00
2017-11-16T05:26:54.800Z,5.10
2017-11-16T05:29:21.108Z,5.10
2017-11-16T05:31:48.143Z,4.90
2017-11-16T05:34:14.434Z,4.90
2017-11-16T05:36:40.716Z,4.90
2017-11-16T05:39:07.032Z,4.90
2017-11-16T05:41:34.096Z,5.00
2017-11-16T05:44:00.400Z,4.90
2017-11-16T05:46:26.711Z,5.00
2017-11-16T05:48:53.053Z,5.00
2017-11-16T05:51:19.320Z,4.90
2017-11-16T05:53:46.392Z,5.00
2017-11-16T05:56:12.748Z,5.00
2017-11-16T05:58:39.048Z,5.00
2017-11-16T06:01:05.411Z,5.00
2017-11-16T06:03:31.684Z,5.00
2017-11-16T06:05:57.967Z,5.00
2017-11-16T06:08:24.996Z,5.00
2017-11-16T06:10:51.284Z,5.00
2017-11-16T06:13:17.556Z,5.00
2017-11-16T06:15:43.844Z,5.10
2017-11-16T06:18:10.122Z,5.00
2017-11-16T06:20:36.397Z,5.00
2017-11-16T07:02:16.995Z,5.20
2017-11-16T07:04:43.279Z,5.10
2017-11-16T07:07:10.292Z,5.10
2017-11-16T07:09:36.571Z,5.10
2017-11-16T07:12:02.855Z,5.10
2017-11-16T07:14:29.117Z,5.20
2017-11-16T07:16:55.403Z,5.20
2017-11-16T07:19:21.691Z,5.20
2017-11-16T07:21:47.985Z,5.20
2017-11-16T07:24:15.061Z,5.20
2017-11-16T07:26:41.343Z,5.20
2017-11-16T07:29:07.597Z,5.20
2017-11-16T07:31:34.898Z,5.20
2017-11-16T07:34:01.172Z,5.20
2017-11-16T07:36:27.460Z,5.20
2017-11-16T07:38:53.754Z,5.20
2017-11-16T07:41:20.064Z,5.20
2017-11-16T07:43:46.360Z,5.10
2017-11-16T07:46:12.688Z,5.10
2017-11-16T07:48:38.999Z,5.10
2017-11-16T07:51:05.478Z,5.20
2017-11-16T07:53:31.796Z,5.20
2017-11-16T07:55:58.094Z,5.10
2017-11-16T07:58:24.401Z,5.10
2017-11-16T08:00:50.700Z,5.10
2017-11-16T08:03:17.028Z,5.10
2017-11-16T08:05:44.044Z,5.10
2017-11-16T08:08:10.319Z,5.10
2017-11-16T08:10:37.371Z,5.10
2017-11-16T08:13:03.633Z,5.00
2017-11-16T08:15:30.651Z,5.10
2017-11-16T08:17:56.923Z,5.10
2017-11-16T08:20:23.247Z,5.10
2017-11-16T08:22:49.512Z,5.10
2017-11-16T08:25:15.811Z,5.00
2017-11-16T08:27:42.811Z,5.00
2017-11-16T08:30:09.836Z,5.00
2017-11-16T08:32:36.120Z,5.00
2017-11-16T08:35:03.168Z,5.10
2017-11-16T08:37:30.183Z,5.10
2017-11-16T08:39:56.484Z,5.10
2017-11-16T08:42:22.815Z,5.10
2017-11-16T08:44:49.875Z,5.10
2017-11-16T08:47:16.194Z,5.10
2017-11-16T08:49:42.525Z,5.00
2017-11-16T08:52:08.849Z,5.00
2017-11-16T08:54:35.148Z,5.10
2017-11-16T08:57:01.471Z,5.00
2017-11-16T08:59:27.798Z,5.00
2017-11-16T09:01:54.124Z,5.00
2017-11-16T09:04:20.448Z,5.00
2017-11-16T09:06:46.769Z,5.10
2017-11-16T09:09:13.088Z,5.10
2017-11-16T09:11:39.387Z,5.10
2017-11-16T09:14:05.688Z,5.10
2017-11-16T09:16:32.012Z,5.10
2017-11-16T09:18:59.066Z,5.00
2017-11-16T09:21:25.429Z,5.00
2017-11-16T09:23:52.434Z,5.00
2017-11-16T09:26:18.769Z,5.00
2017-11-16T09:28:45.104Z,5.00
2017-11-16T09:31:12.180Z,4.90
2017-11-16T09:33:38.480Z,4.90
2017-11-16T09:36:05.528Z,5.00
2017-11-16T09:38:31.813Z,4.90
2017-11-16T09:40:58.111Z,5.00
2017-11-16T09:43:24.439Z,5.10
2017-11-16T09:45:50.735Z,5.00
2017-11-16T09:48:18.059Z,5.00
2017-11-16T09:50:44.378Z,5.00
2017-11-16T09:53:10.688Z,5.10
2017-11-16T09:55:36.984Z,5.00
2017-11-16T09:58:03.302Z,5.00
2017-11-16T10:00:29.555Z,5.00
2017-11-16T10:02:55.805Z,5.10
2017-11-16T10:05:22.100Z,5.00
2017-11-16T10:07:48.370Z,5.00
2017-11-16T10:10:14.635Z,5.00
2017-11-16T10:12:40.944Z,5.10
2017-11-16T10:15:07.215Z,5.10
2017-11-16T10:17:34.226Z,5.00
2017-11-16T10:20:00.508Z,5.00
2017-11-16T10:22:27.493Z,5.20
2017-11-16T10:24:53.773Z,5.10
2017-11-16T10:27:20.100Z,5.20
2017-11-16T10:29:46.348Z,5.30
2017-11-16T10:32:12.624Z,5.20
2017-11-16T10:34:39.652Z,5.10
2017-11-16T10:37:05.923Z,5.10
2017-11-16T10:39:32.936Z,5.10
2017-11-16T10:41:59.296Z,5.00
2017-11-16T10:44:25.637Z,5.10
2017-11-16T10:46:51.937Z,5.00
2017-11-16T10:49:18.238Z,5.00
2017-11-16T10:51:44.572Z,5.00
2017-11-16T10:54:10.836Z,5.00
2017-11-16T10:56:37.117Z,5.10
2017-11-16T10:59:03.424Z,5.10
2017-11-16T11:01:30.427Z,5.00
2017-11-16T11:03:56.722Z,5.00
2017-11-16T11:06:22.992Z,5.10
2017-11-16T11:08:49.256Z,5.10
2017-11-16T11:11:15.537Z,5.00
2017-11-16T11:13:41.828Z,5.20
2017-11-16T11:16:08.114Z,5.20
2017-11-16T11:18:35.146Z,5.00
2017-11-16T11:21:01.429Z,5.10
2017-11-16T11:23:28.439Z,5.10
2017-11-16T11:25:54.712Z,5.10
2017-11-16T11:28:21.008Z,5.10
2017-11-16T11:30:47.267Z,5.10
2017-11-16T11:33:13.570Z,5.10
2017-11-16T11:35:39.868Z,5.00
2017-11-16T11:38:06.144Z,5.10
2017-11-16T11:40:32.464Z,5.00
2017-11-16T11:42:58.772Z,5.00
2017-11-16T11:45:25.044Z,5.00
2017-11-16T11:47:52.112Z,5.00
2017-11-16T11:50:18.380Z,5.00
2017-11-16T11:52:45.419Z,5.00
2017-11-16T11:55:11.717Z,4.90
2017-11-16T11:57:37.988Z,5.00
2017-11-16T12:00:04.307Z,5.10
2017-11-16T12:02:30.608Z,5.00
2017-11-16T12:04:56.892Z,5.00
2017-11-16T12:07:23.179Z,5.10
2017-11-16T12:09:49.492Z,5.00
2017-11-16T12:12:15.775Z,5.00
2017-11-16T12:14:42.024Z,5.00
2017-11-16T12:17:08.324Z,5.00
2017-11-16T12:19:35.619Z,5.10
2017-11-16T12:22:01.891Z,5.00
2017-11-16T12:24:28.198Z,5.00
2017-11-16T12:26:54.469Z,5.00
2017-11-16T12:29:20.787Z,5.00
2017-11-16T12:31:47.116Z,5.00
2017-11-16T12:34:14.161Z,5.10
2017-11-16T12:36:40.465Z,5.00
2017-11-16T12:39:06.780Z,5.10
2017-11-16T12:41:33.085Z,5.00
2017-11-16T12:43:59.389Z,5.00
2017-11-16T12:46:26.756Z,5.00
2017-11-16T12:48:53.039Z,5.00
2017-11-16T12:51:20.296Z,5.00
2017-11-16T12:53:47.360Z,4.90
2017-11-16T12:56:13.671Z,4.80
2017-11-16T12:58:39.975Z,4.90
2017-11-16T13:01:06.276Z,4.90
2017-11-16T13:03:33.343Z,4.90
2017-11-16T13:06:00.652Z,4.90
2017-11-16T13:08:26.920Z,4.80
2017-11-16T13:10:54.235Z,4.90
2017-11-16T13:13:20.507Z,4.90
2017-11-16T13:15:46.799Z,4.80
2017-11-16T13:18:13.109Z,4.80
2017-11-16T13:20:39.405Z,4.80
2017-11-16T13:23:05.691Z,4.70
2017-11-16T13:25:31.968Z,4.70
2017-11-16T13:27:58.983Z,4.70
2017-11-16T13:30:25.240Z,4.70
2017-11-16T13:32:51.512Z,4.70
2017-11-16T13:35:18.523Z,4.70
2017-11-16T13:37:44.786Z,4.70
2017-11-16T13:40:11.818Z,4.80
2017-11-16T13:42:38.100Z,4.80
2017-11-16T13:45:04.408Z,4.80
2017-11-16T13:47:30.700Z,4.80
2017-11-16T13:49:57.704Z,4.70
2017-11-16T13:52:24.740Z,4.70
2017-11-16T13:54:51.004Z,4.70
2017-11-16T13:57:17.312Z,4.80
2017-11-16T13:59:43.595Z,4.80
2017-11-16T14:02:09.880Z,4.80
2017-11-16T14:04:36.160Z,4.70
2017-11-16T14:07:02.440Z,4.60
2017-11-16T14:09:28.967Z,4.50
2017-11-16T14:11:55.260Z,4.60
2017-11-16T14:14:21.539Z,4.70
2017-11-16T14:16:47.789Z,4.70
2017-11-16T14:19:14.068Z,4.70
2017-11-16T14:21:41.088Z,4.60
2017-11-16T14:24:07.379Z,4.60
2017-11-16T14:26:33.744Z,4.60
2017-11-16T14:29:00.012Z,4.70
2017-11-16T14:31:26.272Z,4.80
2017-11-16T14:33:53.312Z,4.60
2017-11-16T14:36:19.573Z,4.60
2017-11-16T14:38:45.872Z,4.60
2017-11-16T14:41:12.173Z,4.60
2017-11-16T14:43:39.181Z,4.60
2017-11-16T14:46:05.532Z,4.60
2017-11-16T14:48:31.797Z,4.60
2017-11-16T14:50:58.064Z,4.60
2017-11-16T14:53:24.375Z,4.60
2017-11-16T14:55:50.636Z,4.60
2017-11-16T14:58:17.896Z,4.50
2017-11-16T15:00:44.945Z,4.60
2017-11-16T15:03:11.212Z,4.60
2017-11-16T15:05:38.220Z,4.60
2017-11-16T15:08:04.555Z,4.60
2017-11-16T15:10:30.821Z,4.50
2017-11-16T15:12:57.091Z,4.50
2017-11-16T15:15:23.379Z,4.60
2017-11-16T15:17:49.632Z,4.60
2017-11-16T15:20:15.920Z,4.60
2017-11-16T15:22:42.212Z,4.50
2017-11-16T15:25:08.508Z,4.50
2017-11-16T15:27:35.500Z,4.50
2017-11-16T15:30:01.791Z,4.60
2017-11-16T15:32:28.852Z,4.50
2017-11-16T15:34:55.852Z,4.50
2017-11-16T15:37:22.152Z,4.50
2017-11-16T15:39:49.193Z,4.50
2017-11-16T15:42:15.469Z,4.50
2017-11-16T15:44:41.756Z,4.50
2017-11-16T15:47:08.085Z,4.50
2017-11-16T15:49:34.377Z,4.40
2017-11-16T15:52:00.718Z,4.50
2017-11-16T15:54:28.193Z,4.50
2017-11-16T15:56:54.478Z,4.50
2017-11-16T15:59:20.809Z,4.50
2017-11-16T16:01:47.048Z,4.50
2017-11-16T16:04:13.437Z,4.50
2017-11-16T16:06:40.540Z,4.60
2017-11-16T16:09:06.828Z,4.60
2017-11-16T16:11:33.159Z,4.60
2017-11-16T16:14:00.211Z,4.50
2017-11-16T16:16:26.546Z,4.50
2017-11-16T16:18:52.807Z,4.40
2017-11-16T16:21:19.435Z,4.40
2017-11-16T16:23:45.924Z,4.50
2017-11-16T16:26:12.521Z,4.50
2017-11-16T16:28:39.474Z,4.40
2017-11-16T16:31:07.005Z,4.40
2017-11-16T16:33:35.649Z,4.50
2017-11-16T16:36:02.904Z,4.50
2017-11-16T16:38:30.682Z,4.50
2017-11-16T16:40:57.833Z,4.50
2017-11-16T16:43:24.617Z,4.50
2017-11-16T16:45:51.833Z,4.50
2017-11-16T16:48:18.786Z,4.50
2017-11-16T16:50:46.170Z,4.50
2017-11-16T16:53:13.716Z,4.50
2017-11-16T16:55:41.215Z,4.50
2017-11-16T16:58:08.815Z,4.40
2017-11-16T17:00:36.104Z,4.40
2017-11-16T17:03:03.925Z,4.40
2017-11-16T17:05:31.789Z,4.40
2017-11-16T17:07:59.726Z,4.30
2017-11-16T17:10:27.708Z,4.20
2017-11-16T17:12:55.606Z,4.30
2017-11-16T17:15:23.541Z,4.30
2017-11-16T17:17:52.219Z,4.20
2017-11-16T17:20:20.113Z,4.10
2017-11-16T17:22:48.114Z,4.10
2017-11-16T17:25:16.172Z,4.00
2017-11-16T17:27:44.074Z,3.90
2017-11-16T17:30:12.219Z,4.00
2017-11-16T17:32:40.264Z,4.10
2017-11-16T17:35:08.194Z,4.10
2017-11-16T17:37:36.980Z,3.90
2017-11-16T17:40:05.018Z,4.00
2017-11-16T17:42:33.002Z,4.00
2017-11-16T17:45:01.227Z,3.90
2017-11-16T17:47:29.303Z,3.90
2017-11-16T17:49:58.022Z,3.90
2017-11-16T17:52:26.794Z,3.90
2017-11-16T17:54:55.957Z,3.90
2017-11-16T17:57:24.727Z,3.80
2017-11-16T17:59:52.904Z,3.80
2017-11-16T18:02:20.894Z,3.90
2017-11-16T18:04:49.059Z,3.90
2017-11-16T18:07:17.042Z,3.90
2017-11-16T18:09:45.120Z,3.90
2017-11-16T18:12:13.307Z,3.80
2017-11-16T18:14:41.283Z,3.80
2017-11-16T18:17:09.550Z,3.90
2017-11-16T18:19:37.641Z,3.80
2017-11-16T18:22:07.789Z,3.80
2017-11-16T18:24:35.983Z,3.80
2017-11-16T18:27:04.128Z,3.80
2017-11-16T18:29:32.491Z,3.80
2017-11-16T18:32:00.468Z,3.80
2017-11-16T18:34:29.453Z,3.70
2017-11-16T18:36:57.433Z,3.70
2017-11-16T18:39:26.455Z,3.70
2017-11-16T18:41:55.207Z,3.60
2017-11-16T18:44:23.862Z,3.60
2017-11-16T18:46:51.959Z,3.70
2017-11-16T18:49:19.943Z,3.70
2017-11-16T18:51:48.032Z,3.80
2017-11-16T18:54:16.080Z,3.70
2017-11-16T18:56:44.203Z,3.70
2017-11-16T18:59:12.402Z,3.70
2017-11-16T19:01:41.113Z,3.70
2017-11-16T19:04:09.183Z,3.70
2017-11-16T19:06:37.292Z,3.70
2017-11-16T19:09:06.180Z,3.70
2017-11-16T19:11:34.294Z,3.70
2017-11-16T19:14:04.030Z,3.80
2017-11-16T19:16:32.121Z,3.80
2017-11-16T19:19:00.930Z,3.80
2017-11-16T19:21:29.069Z,3.80
2017-11-16T19:23:57.332Z,3.80
2017-11-16T19:26:25.540Z,3.80
2017-11-16T19:28:54.638Z,3.70
2017-11-16T19:31:23.761Z,3.60
2017-11-16T19:33:51.996Z,3.70
2017-11-16T19:36:20.756Z,3.70
2017-11-16T19:38:49.045Z,3.70
2017-11-16T19:41:17.000Z,3.60
2017-11-16T19:43:45.060Z,3.60
2017-11-16T19:46:13.553Z,3.60
2017-11-16T19:48:42.420Z,3.50
2017-11-16T19:51:10.474Z,3.50
2017-11-16T19:53:38.471Z,3.50
2017-11-16T19:56:07.671Z,3.60
2017-11-16T19:58:36.734Z,3.60
2017-11-16T20:01:04.822Z,3.60
2017-11-16T20:03:32.892Z,3.60
2017-11-16T20:06:01.077Z,3.60
2017-11-16T20:08:29.963Z,3.60
2017-11-16T20:10:58.003Z,3.50
2017-11-16T20:13:27.090Z,3.50
2017-11-16T20:15:55.195Z,3.60
2017-11-16T20:18:23.443Z,3.60
2017-11-16T20:20:51.594Z,3.60
2017-11-16T20:23:27.782Z,3.70
2017-11-16T20:25:55.890Z,3.70
2017-11-16T20:28:25.220Z,3.70
2017-11-16T20:30:53.540Z,3.60
2017-11-16T20:33:22.487Z,3.50
2017-11-16T20:35:50.604Z,3.60
2017-11-16T20:41:28.493Z,3.60
2017-11-16T20:43:59.662Z,3.60
2017-11-16T20:46:29.809Z,3.60
2017-11-16T20:49:05.581Z,3.60
2017-11-16T20:51:49.432Z,3.60
2017-11-16T20:54:19.432Z,3.70
2017-11-16T20:56:47.407Z,3.70
2017-11-16T20:59:16.477Z,3.70
2017-11-16T21:01:44.622Z,3.70
2017-11-16T21:04:12.686Z,3.70
2017-11-16T21:06:41.564Z,3.70
2017-11-16T21:09:10.263Z,3.70
2017-11-16T21:11:38.262Z,3.80
2017-11-16T21:14:06.385Z,3.80
2017-11-16T21:16:34.391Z,3.80
2017-11-16T21:19:02.505Z,3.70
2017-11-16T21:21:30.542Z,3.70
2017-11-16T21:23:59.528Z,3.70
2017-11-16T21:26:28.178Z,3.80
2017-11-16T21:28:56.072Z,3.80
2017-11-16T21:31:24.162Z,3.80
2017-11-16T21:33:52.072Z,3.80
2017-11-16T21:36:20.066Z,3.80
2017-11-16T21:38:48.028Z,3.80
2017-11-16T21:41:15.913Z,3.80
2017-11-16T21:43:44.031Z,3.80
2017-11-16T21:46:12.108Z,3.80
2017-11-16T21:48:40.000Z,3.80
2017-11-16T21:51:07.863Z,3.80
2017-11-16T21:53:35.941Z,3.80
2017-11-16T21:56:03.834Z,3.80
2017-11-16T21:58:34.032Z,3.70
2017-11-16T22:01:02.627Z,3.80
2017-11-16T22:03:30.674Z,3.80
2017-11-16T22:06:00.397Z,3.80
2017-11-16T22:08:29.032Z,3.70
2017-11-16T22:10:56.891Z,3.70
2017-11-16T22:13:25.614Z,3.70
2017-11-16T22:15:54.411Z,3.70
2017-11-16T22:18:23.923Z,3.70
2017-11-16T22:20:52.878Z,3.70
2017-11-16T22:23:22.159Z,3.70
2017-11-16T22:25:51.035Z,3.70
2017-11-16T22:28:19.686Z,3.70
2017-11-16T22:30:47.754Z,3.70
2017-11-16T22:33:15.768Z,3.70
2017-11-16T22:35:44.814Z,3.70
2017-11-16T22:38:14.219Z,3.60
2017-11-16T22:40:43.237Z,3.60
2017-11-16T22:43:12.774Z,3.60
2017-11-16T22:45:41.881Z,3.60
2017-11-16T22:48:10.125Z,3.60
2017-11-16T22:50:37.919Z,3.50
2017-11-16T22:53:04.525Z,3.50
2017-11-16T22:55:31.012Z,3.50
2017-11-16T22:57:57.515Z,3.40
2017-11-16T23:00:24.017Z,3.50
2017-11-16T23:02:51.250Z,3.60
2017-11-16T23:05:17.707Z,3.60
2017-11-16T23:07:44.132Z,3.60
2017-11-16T23:10:10.764Z,3.50
2017-11-16T23:12:37.237Z,3.50
2017-11-16T23:15:05.810Z,3.60
2017-11-16T23:17:32.269Z,3.60
2017-11-16T23:19:58.750Z,3.60
2017-11-16T23:22:25.170Z,3.60
2017-11-16T23:24:51.937Z,3.60
2017-11-16T23:27:18.494Z,3.60
2017-11-16T23:29:46.206Z,3.50
2017-11-16T23:32:13.156Z,3.40
2017-11-16T23:34:40.489Z,3.60
2017-11-16T23:37:06.958Z,3.60
2017-11-16T23:39:34.179Z,3.60
2017-11-16T23:42:00.640Z,3.60
2017-11-16T23:44:27.846Z,3.60
2017-11-16T23:46:54.301Z,3.50
2017-11-16T23:49:20.779Z,3.60
2017-11-16T23:51:47.213Z,3.60
2017-11-16T23:54:13.636Z,3.60
2017-11-16T23:56:40.136Z,3.60
2017-11-16T23:59:06.574Z,3.70
